sensor_id;sensor_type;location;lat;lon;timestamp;P1;durP1;ratioP1;P2;durP2;ratioP2
71238;SDS011;61342;51.442;7.370;2023-04-28T00:00:03;14.20;;;6.97;;
71238;SDS011;61342;51.442;7.370;2023-04-28T00:01:04;10.00;;;7.53;;
71238;SDS011;61342;51.442;7.370;2023-04-28T00:02:05;13.60;;;7.80;;
71238;SDS011;61342;51.442;7.370;2023-04-28T00:03:05;13.60;;;7.87;;
71238;SDS011;61342;51.442;7.370;2023-04-28T00:04:05;9.20;;;7.37;;
71238;SDS011;61342;51.442;7.370;2023-04-28T00:05:06;11.03;;;7.27;;
71238;SDS011;61342;51.442;7.370;2023-04-28T00:06:07;10.20;;;7.90;;
71238;SDS011;61342;51.442;7.370;2023-04-28T00:07:07;8.80;;;6.83;;
71238;SDS011;61342;51.442;7.370;2023-04-28T00:08:08;9.53;;;7.07;;
71238;SDS011;61342;51.442;7.370;2023-04-28T00:09:08;10.60;;;7.30;;
71238;SDS011;61342;51.442;7.370;2023-04-28T00:10:10;9.33;;;6.90;;
71238;SDS011;61342;51.442;7.370;2023-04-28T00:11:10;14.80;;;7.80;;
71238;SDS011;61342;51.442;7.370;2023-04-28T00:12:11;11.27;;;7.47;;
71238;SDS011;61342;51.442;7.370;2023-04-28T00:13:11;11.33;;;7.23;;
71238;SDS011;61342;51.442;7.370;2023-04-28T00:14:12;9.30;;;7.30;;
71238;SDS011;61342;51.442;7.370;2023-04-28T00:15:12;10.07;;;7.43;;
71238;SDS011;61342;51.442;7.370;2023-04-28T00:16:12;11.43;;;8.00;;
71238;SDS011;61342;51.442;7.370;2023-04-28T00:17:13;11.60;;;8.50;;
71238;SDS011;61342;51.442;7.370;2023-04-28T00:18:13;11.37;;;8.00;;
71238;SDS011;61342;51.442;7.370;2023-04-28T00:19:13;10.90;;;8.07;;
71238;SDS011;61342;51.442;7.370;2023-04-28T00:20:14;16.57;;;9.00;;
71238;SDS011;61342;51.442;7.370;2023-04-28T00:21:14;13.00;;;9.03;;
71238;SDS011;61342;51.442;7.370;2023-04-28T00:22:14;10.53;;;8.80;;
71238;SDS011;61342;51.442;7.370;2023-04-28T00:23:15;12.87;;;8.70;;
71238;SDS011;61342;51.442;7.370;2023-04-28T00:24:15;10.87;;;8.77;;
71238;SDS011;61342;51.442;7.370;2023-04-28T00:25:15;12.43;;;8.67;;
71238;SDS011;61342;51.442;7.370;2023-04-28T00:26:16;16.17;;;9.13;;
71238;SDS011;61342;51.442;7.370;2023-04-28T00:27:16;10.93;;;8.23;;
71238;SDS011;61342;51.442;7.370;2023-04-28T00:28:16;10.50;;;8.50;;
71238;SDS011;61342;51.442;7.370;2023-04-28T00:29:17;12.30;;;8.77;;
71238;SDS011;61342;51.442;7.370;2023-04-28T00:30:17;10.80;;;8.23;;
71238;SDS011;61342;51.442;7.370;2023-04-28T00:31:18;14.37;;;8.23;;
71238;SDS011;61342;51.442;7.370;2023-04-28T00:32:18;11.10;;;8.63;;
71238;SDS011;61342;51.442;7.370;2023-04-28T00:33:19;11.00;;;8.20;;
71238;SDS011;61342;51.442;7.370;2023-04-28T00:34:19;12.40;;;8.30;;
71238;SDS011;61342;51.442;7.370;2023-04-28T00:35:20;11.70;;;8.37;;
71238;SDS011;61342;51.442;7.370;2023-04-28T00:36:20;13.37;;;8.70;;
71238;SDS011;61342;51.442;7.370;2023-04-28T00:37:21;10.77;;;7.83;;
71238;SDS011;61342;51.442;7.370;2023-04-28T00:38:21;12.93;;;8.63;;
71238;SDS011;61342;51.442;7.370;2023-04-28T00:39:24;11.23;;;8.67;;
71238;SDS011;61342;51.442;7.370;2023-04-28T00:40:32;10.30;;;8.23;;
71238;SDS011;61342;51.442;7.370;2023-04-28T00:41:33;13.17;;;8.93;;
71238;SDS011;61342;51.442;7.370;2023-04-28T00:42:34;13.87;;;8.33;;
71238;SDS011;61342;51.442;7.370;2023-04-28T00:43:44;15.57;;;8.80;;
71238;SDS011;61342;51.442;7.370;2023-04-28T00:44:45;17.80;;;9.27;;
71238;SDS011;61342;51.442;7.370;2023-04-28T00:45:46;11.97;;;9.30;;
71238;SDS011;61342;51.442;7.370;2023-04-28T00:46:48;12.50;;;9.20;;
71238;SDS011;61342;51.442;7.370;2023-04-28T00:47:49;11.93;;;8.50;;
71238;SDS011;61342;51.442;7.370;2023-04-28T00:48:49;12.17;;;8.57;;
71238;SDS011;61342;51.442;7.370;2023-04-28T00:49:50;10.80;;;8.73;;
71238;SDS011;61342;51.442;7.370;2023-04-28T00:50:51;11.63;;;8.57;;
71238;SDS011;61342;51.442;7.370;2023-04-28T00:51:51;10.60;;;8.50;;
71238;SDS011;61342;51.442;7.370;2023-04-28T00:52:52;14.23;;;8.33;;
71238;SDS011;61342;51.442;7.370;2023-04-28T00:53:52;13.00;;;8.70;;
71238;SDS011;61342;51.442;7.370;2023-04-28T00:54:53;10.67;;;8.50;;
71238;SDS011;61342;51.442;7.370;2023-04-28T00:55:55;13.73;;;8.70;;
71238;SDS011;61342;51.442;7.370;2023-04-28T00:56:56;17.90;;;9.33;;
71238;SDS011;61342;51.442;7.370;2023-04-28T00:57:56;12.60;;;9.70;;
71238;SDS011;61342;51.442;7.370;2023-04-28T00:58:57;13.43;;;8.83;;
71238;SDS011;61342;51.442;7.370;2023-04-28T00:59:57;11.80;;;9.47;;
71238;SDS011;61342;51.442;7.370;2023-04-28T01:01:02;14.47;;;9.13;;
71238;SDS011;61342;51.442;7.370;2023-04-28T01:02:04;12.93;;;8.93;;
71238;SDS011;61342;51.442;7.370;2023-04-28T01:03:06;13.60;;;9.40;;
71238;SDS011;61342;51.442;7.370;2023-04-28T01:04:06;11.70;;;8.40;;
71238;SDS011;61342;51.442;7.370;2023-04-28T01:05:07;12.00;;;9.47;;
71238;SDS011;61342;51.442;7.370;2023-04-28T01:06:08;15.17;;;9.27;;
71238;SDS011;61342;51.442;7.370;2023-04-28T01:07:09;13.50;;;8.73;;
71238;SDS011;61342;51.442;7.370;2023-04-28T01:08:10;14.80;;;9.70;;
71238;SDS011;61342;51.442;7.370;2023-04-28T01:09:11;16.60;;;9.57;;
71238;SDS011;61342;51.442;7.370;2023-04-28T01:10:11;15.40;;;9.27;;
71238;SDS011;61342;51.442;7.370;2023-04-28T01:11:11;11.43;;;9.20;;
71238;SDS011;61342;51.442;7.370;2023-04-28T01:12:13;12.80;;;9.73;;
71238;SDS011;61342;51.442;7.370;2023-04-28T01:13:13;13.43;;;9.70;;
71238;SDS011;61342;51.442;7.370;2023-04-28T01:14:14;13.50;;;9.93;;
71238;SDS011;61342;51.442;7.370;2023-04-28T01:15:15;14.00;;;10.93;;
71238;SDS011;61342;51.442;7.370;2023-04-28T01:16:16;16.77;;;10.27;;
71238;SDS011;61342;51.442;7.370;2023-04-28T01:17:17;19.33;;;10.50;;
71238;SDS011;61342;51.442;7.370;2023-04-28T01:18:17;14.50;;;10.27;;
71238;SDS011;61342;51.442;7.370;2023-04-28T01:19:19;13.07;;;10.30;;
71238;SDS011;61342;51.442;7.370;2023-04-28T01:20:23;11.77;;;9.67;;
71238;SDS011;61342;51.442;7.370;2023-04-28T01:22:28;17.47;;;10.30;;
71238;SDS011;61342;51.442;7.370;2023-04-28T01:23:29;13.10;;;9.77;;
71238;SDS011;61342;51.442;7.370;2023-04-28T01:24:29;17.63;;;10.67;;
71238;SDS011;61342;51.442;7.370;2023-04-28T01:25:30;12.43;;;9.97;;
71238;SDS011;61342;51.442;7.370;2023-04-28T01:26:30;15.43;;;10.43;;
71238;SDS011;61342;51.442;7.370;2023-04-28T01:27:30;15.13;;;10.33;;
71238;SDS011;61342;51.442;7.370;2023-04-28T01:28:31;12.90;;;10.47;;
71238;SDS011;61342;51.442;7.370;2023-04-28T01:29:31;17.00;;;10.60;;
71238;SDS011;61342;51.442;7.370;2023-04-28T01:30:31;13.70;;;9.77;;
71238;SDS011;61342;51.442;7.370;2023-04-28T01:31:32;13.87;;;10.17;;
71238;SDS011;61342;51.442;7.370;2023-04-28T01:32:32;17.10;;;10.50;;
71238;SDS011;61342;51.442;7.370;2023-04-28T01:33:32;17.70;;;10.60;;
71238;SDS011;61342;51.442;7.370;2023-04-28T01:34:33;16.33;;;10.23;;
71238;SDS011;61342;51.442;7.370;2023-04-28T01:35:33;13.33;;;10.77;;
71238;SDS011;61342;51.442;7.370;2023-04-28T01:36:34;14.87;;;11.17;;
71238;SDS011;61342;51.442;7.370;2023-04-28T01:37:34;16.60;;;10.70;;
71238;SDS011;61342;51.442;7.370;2023-04-28T01:38:34;14.37;;;10.83;;
71238;SDS011;61342;51.442;7.370;2023-04-28T01:39:34;15.73;;;10.80;;
71238;SDS011;61342;51.442;7.370;2023-04-28T01:40:35;14.43;;;11.07;;
71238;SDS011;61342;51.442;7.370;2023-04-28T01:41:35;12.60;;;10.23;;
71238;SDS011;61342;51.442;7.370;2023-04-28T01:42:36;18.50;;;11.17;;
71238;SDS011;61342;51.442;7.370;2023-04-28T01:43:36;13.77;;;11.20;;
71238;SDS011;61342;51.442;7.370;2023-04-28T01:44:37;14.73;;;10.97;;
71238;SDS011;61342;51.442;7.370;2023-04-28T01:45:37;13.93;;;10.60;;
71238;SDS011;61342;51.442;7.370;2023-04-28T01:46:37;12.73;;;10.37;;
71238;SDS011;61342;51.442;7.370;2023-04-28T01:47:38;13.33;;;10.43;;
71238;SDS011;61342;51.442;7.370;2023-04-28T01:48:38;14.80;;;10.70;;
71238;SDS011;61342;51.442;7.370;2023-04-28T01:49:38;13.57;;;11.03;;
71238;SDS011;61342;51.442;7.370;2023-04-28T01:50:39;14.73;;;11.40;;
71238;SDS011;61342;51.442;7.370;2023-04-28T01:51:39;12.13;;;10.80;;
71238;SDS011;61342;51.442;7.370;2023-04-28T01:52:41;13.90;;;10.70;;
71238;SDS011;61342;51.442;7.370;2023-04-28T01:53:41;11.33;;;9.97;;
71238;SDS011;61342;51.442;7.370;2023-04-28T01:54:42;16.37;;;10.40;;
71238;SDS011;61342;51.442;7.370;2023-04-28T01:57:29;13.00;;;10.37;;
71238;SDS011;61342;51.442;7.370;2023-04-28T01:58:29;13.13;;;11.17;;
71238;SDS011;61342;51.442;7.370;2023-04-28T01:59:30;13.53;;;10.73;;
71238;SDS011;61342;51.442;7.370;2023-04-28T02:00:30;14.10;;;10.57;;
71238;SDS011;61342;51.442;7.370;2023-04-28T02:01:30;15.93;;;11.20;;
71238;SDS011;61342;51.442;7.370;2023-04-28T02:02:31;13.10;;;10.37;;
71238;SDS011;61342;51.442;7.370;2023-04-28T02:03:31;15.37;;;10.70;;
71238;SDS011;61342;51.442;7.370;2023-04-28T02:04:31;15.30;;;11.00;;
71238;SDS011;61342;51.442;7.370;2023-04-28T02:05:32;13.77;;;10.47;;
71238;SDS011;61342;51.442;7.370;2023-04-28T02:06:32;13.00;;;10.77;;
71238;SDS011;61342;51.442;7.370;2023-04-28T02:07:32;17.70;;;11.27;;
71238;SDS011;61342;51.442;7.370;2023-04-28T02:08:33;14.30;;;11.33;;
71238;SDS011;61342;51.442;7.370;2023-04-28T02:09:33;13.73;;;10.77;;
71238;SDS011;61342;51.442;7.370;2023-04-28T02:10:33;17.27;;;11.07;;
71238;SDS011;61342;51.442;7.370;2023-04-28T02:11:34;15.87;;;11.37;;
71238;SDS011;61342;51.442;7.370;2023-04-28T02:12:34;13.23;;;10.43;;
71238;SDS011;61342;51.442;7.370;2023-04-28T02:13:34;13.73;;;9.73;;
71238;SDS011;61342;51.442;7.370;2023-04-28T02:14:35;13.47;;;9.50;;
71238;SDS011;61342;51.442;7.370;2023-04-28T02:15:42;13.70;;;9.80;;
71238;SDS011;61342;51.442;7.370;2023-04-28T02:16:42;15.13;;;10.80;;
71238;SDS011;61342;51.442;7.370;2023-04-28T02:17:43;13.60;;;9.23;;
71238;SDS011;61342;51.442;7.370;2023-04-28T02:18:43;12.67;;;9.67;;
71238;SDS011;61342;51.442;7.370;2023-04-28T02:19:43;15.63;;;10.07;;
71238;SDS011;61342;51.442;7.370;2023-04-28T02:20:44;12.37;;;9.73;;
71238;SDS011;61342;51.442;7.370;2023-04-28T02:21:44;14.97;;;9.77;;
71238;SDS011;61342;51.442;7.370;2023-04-28T02:22:45;17.60;;;10.43;;
71238;SDS011;61342;51.442;7.370;2023-04-28T02:23:45;13.63;;;10.00;;
71238;SDS011;61342;51.442;7.370;2023-04-28T02:24:45;15.33;;;10.80;;
71238;SDS011;61342;51.442;7.370;2023-04-28T02:25:46;14.43;;;10.03;;
71238;SDS011;61342;51.442;7.370;2023-04-28T02:26:46;15.20;;;11.27;;
71238;SDS011;61342;51.442;7.370;2023-04-28T02:27:46;13.10;;;11.07;;
71238;SDS011;61342;51.442;7.370;2023-04-28T02:28:47;17.23;;;11.30;;
71238;SDS011;61342;51.442;7.370;2023-04-28T02:29:48;14.10;;;11.07;;
71238;SDS011;61342;51.442;7.370;2023-04-28T02:30:48;15.50;;;11.37;;
71238;SDS011;61342;51.442;7.370;2023-04-28T02:31:48;16.27;;;11.27;;
71238;SDS011;61342;51.442;7.370;2023-04-28T02:32:49;14.60;;;11.50;;
71238;SDS011;61342;51.442;7.370;2023-04-28T02:33:49;13.07;;;11.50;;
71238;SDS011;61342;51.442;7.370;2023-04-28T02:34:55;17.37;;;11.70;;
71238;SDS011;61342;51.442;7.370;2023-04-28T02:35:59;14.97;;;10.60;;
71238;SDS011;61342;51.442;7.370;2023-04-28T02:37:03;15.47;;;11.17;;
71238;SDS011;61342;51.442;7.370;2023-04-28T02:38:03;15.80;;;10.80;;
71238;SDS011;61342;51.442;7.370;2023-04-28T02:39:04;16.03;;;9.83;;
71238;SDS011;61342;51.442;7.370;2023-04-28T02:40:04;10.43;;;9.33;;
71238;SDS011;61342;51.442;7.370;2023-04-28T02:41:06;9.97;;;8.80;;
71238;SDS011;61342;51.442;7.370;2023-04-28T02:42:08;13.27;;;8.73;;
71238;SDS011;61342;51.442;7.370;2023-04-28T02:43:08;12.37;;;9.23;;
71238;SDS011;61342;51.442;7.370;2023-04-28T02:44:08;10.07;;;8.27;;
71238;SDS011;61342;51.442;7.370;2023-04-28T02:45:09;11.03;;;8.03;;
71238;SDS011;61342;51.442;7.370;2023-04-28T02:46:10;12.80;;;9.00;;
71238;SDS011;61342;51.442;7.370;2023-04-28T02:47:10;13.93;;;8.47;;
71238;SDS011;61342;51.442;7.370;2023-04-28T02:48:11;11.20;;;8.00;;
71238;SDS011;61342;51.442;7.370;2023-04-28T02:49:11;13.20;;;8.60;;
71238;SDS011;61342;51.442;7.370;2023-04-28T02:50:12;12.00;;;8.27;;
71238;SDS011;61342;51.442;7.370;2023-04-28T02:51:12;11.97;;;7.97;;
71238;SDS011;61342;51.442;7.370;2023-04-28T02:52:13;10.27;;;7.83;;
71238;SDS011;61342;51.442;7.370;2023-04-28T02:53:13;9.57;;;7.70;;
71238;SDS011;61342;51.442;7.370;2023-04-28T02:54:14;9.87;;;8.60;;
71238;SDS011;61342;51.442;7.370;2023-04-28T02:55:15;13.83;;;8.73;;
71238;SDS011;61342;51.442;7.370;2023-04-28T02:56:22;11.07;;;7.63;;
71238;SDS011;61342;51.442;7.370;2023-04-28T02:57:23;8.93;;;7.13;;
71238;SDS011;61342;51.442;7.370;2023-04-28T02:58:23;10.87;;;7.90;;
71238;SDS011;61342;51.442;7.370;2023-04-28T02:59:24;13.23;;;8.27;;
71238;SDS011;61342;51.442;7.370;2023-04-28T03:00:24;12.40;;;7.90;;
71238;SDS011;61342;51.442;7.370;2023-04-28T03:01:25;13.20;;;8.47;;
71238;SDS011;61342;51.442;7.370;2023-04-28T03:02:25;14.17;;;8.03;;
71238;SDS011;61342;51.442;7.370;2023-04-28T03:03:26;11.67;;;7.47;;
71238;SDS011;61342;51.442;7.370;2023-04-28T03:04:26;14.33;;;8.37;;
71238;SDS011;61342;51.442;7.370;2023-04-28T03:05:26;10.70;;;8.07;;
71238;SDS011;61342;51.442;7.370;2023-04-28T03:06:27;11.77;;;7.80;;
71238;SDS011;61342;51.442;7.370;2023-04-28T03:07:27;10.27;;;8.30;;
71238;SDS011;61342;51.442;7.370;2023-04-28T03:08:28;11.40;;;8.37;;
71238;SDS011;61342;51.442;7.370;2023-04-28T03:09:28;15.20;;;8.80;;
71238;SDS011;61342;51.442;7.370;2023-04-28T03:10:28;11.50;;;8.47;;
71238;SDS011;61342;51.442;7.370;2023-04-28T03:11:29;10.47;;;7.90;;
71238;SDS011;61342;51.442;7.370;2023-04-28T03:12:29;11.00;;;8.00;;
71238;SDS011;61342;51.442;7.370;2023-04-28T03:13:29;10.93;;;8.23;;
71238;SDS011;61342;51.442;7.370;2023-04-28T03:14:30;11.60;;;8.33;;
71238;SDS011;61342;51.442;7.370;2023-04-28T03:15:30;11.27;;;8.43;;
71238;SDS011;61342;51.442;7.370;2023-04-28T03:16:31;11.43;;;7.97;;
71238;SDS011;61342;51.442;7.370;2023-04-28T03:17:31;12.80;;;8.03;;
71238;SDS011;61342;51.442;7.370;2023-04-28T03:18:32;10.47;;;7.70;;
71238;SDS011;61342;51.442;7.370;2023-04-28T03:19:32;13.23;;;8.17;;
71238;SDS011;61342;51.442;7.370;2023-04-28T03:20:32;16.40;;;8.37;;
71238;SDS011;61342;51.442;7.370;2023-04-28T03:21:33;10.60;;;8.03;;
71238;SDS011;61342;51.442;7.370;2023-04-28T03:22:33;13.87;;;8.13;;
71238;SDS011;61342;51.442;7.370;2023-04-28T03:23:34;10.23;;;7.73;;
71238;SDS011;61342;51.442;7.370;2023-04-28T03:24:34;8.67;;;7.53;;
71238;SDS011;61342;51.442;7.370;2023-04-28T03:25:35;10.00;;;7.53;;
71238;SDS011;61342;51.442;7.370;2023-04-28T03:26:35;12.87;;;8.70;;
71238;SDS011;61342;51.442;7.370;2023-04-28T03:27:36;14.13;;;8.57;;
71238;SDS011;61342;51.442;7.370;2023-04-28T03:28:36;12.30;;;8.70;;
71238;SDS011;61342;51.442;7.370;2023-04-28T03:29:36;11.87;;;8.20;;
71238;SDS011;61342;51.442;7.370;2023-04-28T03:30:37;11.17;;;8.20;;
71238;SDS011;61342;51.442;7.370;2023-04-28T03:31:37;12.13;;;8.50;;
71238;SDS011;61342;51.442;7.370;2023-04-28T03:32:37;11.63;;;8.50;;
71238;SDS011;61342;51.442;7.370;2023-04-28T03:33:38;10.53;;;8.53;;
71238;SDS011;61342;51.442;7.370;2023-04-28T03:34:38;14.37;;;8.00;;
71238;SDS011;61342;51.442;7.370;2023-04-28T03:35:38;11.17;;;7.43;;
71238;SDS011;61342;51.442;7.370;2023-04-28T03:36:39;13.33;;;8.07;;
71238;SDS011;61342;51.442;7.370;2023-04-28T03:37:39;11.43;;;8.77;;
71238;SDS011;61342;51.442;7.370;2023-04-28T03:38:40;11.83;;;8.50;;
71238;SDS011;61342;51.442;7.370;2023-04-28T03:39:40;13.37;;;7.60;;
71238;SDS011;61342;51.442;7.370;2023-04-28T03:40:41;11.43;;;8.37;;
71238;SDS011;61342;51.442;7.370;2023-04-28T03:41:41;10.90;;;7.70;;
71238;SDS011;61342;51.442;7.370;2023-04-28T03:42:41;8.93;;;7.47;;
71238;SDS011;61342;51.442;7.370;2023-04-28T03:43:42;14.33;;;8.60;;
71238;SDS011;61342;51.442;7.370;2023-04-28T03:44:42;13.07;;;9.40;;
71238;SDS011;61342;51.442;7.370;2023-04-28T03:45:42;11.20;;;8.30;;
71238;SDS011;61342;51.442;7.370;2023-04-28T03:46:43;12.03;;;8.73;;
71238;SDS011;61342;51.442;7.370;2023-04-28T03:47:43;9.00;;;7.67;;
71238;SDS011;61342;51.442;7.370;2023-04-28T03:48:43;9.37;;;7.60;;
71238;SDS011;61342;51.442;7.370;2023-04-28T03:49:45;15.07;;;8.53;;
71238;SDS011;61342;51.442;7.370;2023-04-28T03:50:45;12.67;;;8.93;;
71238;SDS011;61342;51.442;7.370;2023-04-28T03:51:45;11.20;;;8.80;;
71238;SDS011;61342;51.442;7.370;2023-04-28T03:52:46;10.50;;;8.27;;
71238;SDS011;61342;51.442;7.370;2023-04-28T03:53:47;11.10;;;8.27;;
71238;SDS011;61342;51.442;7.370;2023-04-28T03:54:47;11.73;;;8.20;;
71238;SDS011;61342;51.442;7.370;2023-04-28T03:55:47;9.63;;;7.83;;
71238;SDS011;61342;51.442;7.370;2023-04-28T03:56:48;12.17;;;7.57;;
71238;SDS011;61342;51.442;7.370;2023-04-28T03:57:48;9.63;;;7.60;;
71238;SDS011;61342;51.442;7.370;2023-04-28T03:58:48;12.37;;;8.87;;
71238;SDS011;61342;51.442;7.370;2023-04-28T03:59:49;10.40;;;7.67;;
71238;SDS011;61342;51.442;7.370;2023-04-28T04:00:50;9.43;;;7.97;;
71238;SDS011;61342;51.442;7.370;2023-04-28T04:01:50;9.63;;;7.37;;
71238;SDS011;61342;51.442;7.370;2023-04-28T04:02:51;11.53;;;7.83;;
71238;SDS011;61342;51.442;7.370;2023-04-28T04:03:51;10.63;;;7.93;;
71238;SDS011;61342;51.442;7.370;2023-04-28T04:04:51;9.70;;;8.00;;
71238;SDS011;61342;51.442;7.370;2023-04-28T04:05:52;10.13;;;8.53;;
71238;SDS011;61342;51.442;7.370;2023-04-28T04:06:54;11.87;;;7.90;;
71238;SDS011;61342;51.442;7.370;2023-04-28T04:07:54;11.53;;;8.57;;
71238;SDS011;61342;51.442;7.370;2023-04-28T04:08:55;10.67;;;7.77;;
71238;SDS011;61342;51.442;7.370;2023-04-28T04:09:55;11.30;;;7.83;;
71238;SDS011;61342;51.442;7.370;2023-04-28T04:10:56;11.73;;;7.57;;
71238;SDS011;61342;51.442;7.370;2023-04-28T04:11:56;10.83;;;7.73;;
71238;SDS011;61342;51.442;7.370;2023-04-28T04:12:57;10.57;;;7.80;;
71238;SDS011;61342;51.442;7.370;2023-04-28T04:13:58;11.83;;;8.40;;
71238;SDS011;61342;51.442;7.370;2023-04-28T04:14:58;11.43;;;7.73;;
71238;SDS011;61342;51.442;7.370;2023-04-28T04:15:59;9.37;;;7.60;;
71238;SDS011;61342;51.442;7.370;2023-04-28T04:16:59;8.87;;;7.80;;
71238;SDS011;61342;51.442;7.370;2023-04-28T04:18:00;9.83;;;7.90;;
71238;SDS011;61342;51.442;7.370;2023-04-28T04:19:00;9.47;;;7.20;;
71238;SDS011;61342;51.442;7.370;2023-04-28T04:20:01;13.90;;;7.90;;
71238;SDS011;61342;51.442;7.370;2023-04-28T04:21:01;12.03;;;8.10;;
71238;SDS011;61342;51.442;7.370;2023-04-28T04:22:02;8.80;;;7.30;;
71238;SDS011;61342;51.442;7.370;2023-04-28T04:23:02;11.17;;;6.97;;
71238;SDS011;61342;51.442;7.370;2023-04-28T04:24:03;8.83;;;7.00;;
71238;SDS011;61342;51.442;7.370;2023-04-28T04:25:03;9.97;;;6.87;;
71238;SDS011;61342;51.442;7.370;2023-04-28T04:26:04;8.90;;;7.40;;
71238;SDS011;61342;51.442;7.370;2023-04-28T04:27:05;10.33;;;6.83;;
71238;SDS011;61342;51.442;7.370;2023-04-28T04:28:05;10.20;;;7.33;;
71238;SDS011;61342;51.442;7.370;2023-04-28T04:29:06;11.13;;;7.20;;
71238;SDS011;61342;51.442;7.370;2023-04-28T04:30:06;10.80;;;7.37;;
71238;SDS011;61342;51.442;7.370;2023-04-28T04:31:07;11.00;;;7.33;;
71238;SDS011;61342;51.442;7.370;2023-04-28T04:32:07;8.33;;;7.20;;
71238;SDS011;61342;51.442;7.370;2023-04-28T04:33:08;10.60;;;6.97;;
71238;SDS011;61342;51.442;7.370;2023-04-28T04:34:08;8.67;;;7.10;;
71238;SDS011;61342;51.442;7.370;2023-04-28T04:35:09;7.97;;;7.03;;
71238;SDS011;61342;51.442;7.370;2023-04-28T04:36:09;9.03;;;7.50;;
71238;SDS011;61342;51.442;7.370;2023-04-28T04:37:09;10.93;;;7.07;;
71238;SDS011;61342;51.442;7.370;2023-04-28T04:38:10;10.27;;;6.93;;
71238;SDS011;61342;51.442;7.370;2023-04-28T04:39:10;8.90;;;7.00;;
71238;SDS011;61342;51.442;7.370;2023-04-28T04:40:11;9.50;;;7.17;;
71238;SDS011;61342;51.442;7.370;2023-04-28T04:41:11;9.00;;;7.10;;
71238;SDS011;61342;51.442;7.370;2023-04-28T04:42:12;10.87;;;7.37;;
71238;SDS011;61342;51.442;7.370;2023-04-28T04:43:12;9.03;;;7.00;;
71238;SDS011;61342;51.442;7.370;2023-04-28T04:44:12;10.93;;;7.13;;
71238;SDS011;61342;51.442;7.370;2023-04-28T04:45:13;11.50;;;6.63;;
71238;SDS011;61342;51.442;7.370;2023-04-28T04:46:13;8.27;;;6.80;;
71238;SDS011;61342;51.442;7.370;2023-04-28T04:47:13;9.70;;;6.60;;
71238;SDS011;61342;51.442;7.370;2023-04-28T04:48:14;8.23;;;6.60;;
71238;SDS011;61342;51.442;7.370;2023-04-28T04:49:14;7.47;;;6.33;;
71238;SDS011;61342;51.442;7.370;2023-04-28T04:50:15;8.93;;;6.77;;
71238;SDS011;61342;51.442;7.370;2023-04-28T04:51:16;7.83;;;6.73;;
71238;SDS011;61342;51.442;7.370;2023-04-28T04:52:16;10.43;;;6.37;;
71238;SDS011;61342;51.442;7.370;2023-04-28T04:53:17;9.10;;;6.70;;
71238;SDS011;61342;51.442;7.370;2023-04-28T04:54:17;9.90;;;6.97;;
71238;SDS011;61342;51.442;7.370;2023-04-28T04:55:17;7.90;;;6.27;;
71238;SDS011;61342;51.442;7.370;2023-04-28T04:56:18;9.30;;;6.80;;
71238;SDS011;61342;51.442;7.370;2023-04-28T04:57:18;9.33;;;6.50;;
71238;SDS011;61342;51.442;7.370;2023-04-28T04:58:18;8.30;;;6.60;;
71238;SDS011;61342;51.442;7.370;2023-04-28T04:59:19;10.40;;;6.77;;
71238;SDS011;61342;51.442;7.370;2023-04-28T05:00:20;7.87;;;5.93;;
71238;SDS011;61342;51.442;7.370;2023-04-28T05:01:20;7.60;;;6.73;;
71238;SDS011;61342;51.442;7.370;2023-04-28T05:02:21;10.07;;;6.97;;
71238;SDS011;61342;51.442;7.370;2023-04-28T05:03:21;7.07;;;6.37;;
71238;SDS011;61342;51.442;7.370;2023-04-28T05:04:22;8.83;;;6.37;;
71238;SDS011;61342;51.442;7.370;2023-04-28T05:05:22;9.00;;;6.63;;
71238;SDS011;61342;51.442;7.370;2023-04-28T05:06:23;9.03;;;6.90;;
71238;SDS011;61342;51.442;7.370;2023-04-28T05:07:23;8.97;;;7.07;;
71238;SDS011;61342;51.442;7.370;2023-04-28T05:08:25;12.40;;;7.10;;
71238;SDS011;61342;51.442;7.370;2023-04-28T05:09:26;9.43;;;7.10;;
71238;SDS011;61342;51.442;7.370;2023-04-28T05:10:26;9.67;;;7.13;;
71238;SDS011;61342;51.442;7.370;2023-04-28T05:11:26;9.43;;;6.33;;
71238;SDS011;61342;51.442;7.370;2023-04-28T05:12:27;8.97;;;6.37;;
71238;SDS011;61342;51.442;7.370;2023-04-28T05:13:27;8.53;;;7.07;;
71238;SDS011;61342;51.442;7.370;2023-04-28T05:14:27;11.07;;;7.23;;
71238;SDS011;61342;51.442;7.370;2023-04-28T05:15:28;9.67;;;6.90;;
71238;SDS011;61342;51.442;7.370;2023-04-28T05:16:28;8.70;;;6.90;;
71238;SDS011;61342;51.442;7.370;2023-04-28T05:17:29;11.83;;;6.63;;
71238;SDS011;61342;51.442;7.370;2023-04-28T05:18:29;10.03;;;6.80;;
71238;SDS011;61342;51.442;7.370;2023-04-28T05:19:29;9.33;;;6.93;;
71238;SDS011;61342;51.442;7.370;2023-04-28T05:20:30;9.57;;;6.53;;
71238;SDS011;61342;51.442;7.370;2023-04-28T05:21:30;9.67;;;6.03;;
71238;SDS011;61342;51.442;7.370;2023-04-28T05:22:31;11.53;;;7.93;;
71238;SDS011;61342;51.442;7.370;2023-04-28T05:23:32;9.27;;;6.73;;
71238;SDS011;61342;51.442;7.370;2023-04-28T05:24:33;10.83;;;7.07;;
71238;SDS011;61342;51.442;7.370;2023-04-28T05:25:33;8.23;;;6.77;;
71238;SDS011;61342;51.442;7.370;2023-04-28T05:26:34;8.40;;;6.80;;
71238;SDS011;61342;51.442;7.370;2023-04-28T05:27:35;8.17;;;7.20;;
71238;SDS011;61342;51.442;7.370;2023-04-28T05:28:38;10.27;;;7.23;;
71238;SDS011;61342;51.442;7.370;2023-04-28T05:29:40;10.70;;;7.07;;
71238;SDS011;61342;51.442;7.370;2023-04-28T05:30:41;9.83;;;6.67;;
71238;SDS011;61342;51.442;7.370;2023-04-28T05:31:43;8.37;;;7.17;;
71238;SDS011;61342;51.442;7.370;2023-04-28T05:32:44;9.97;;;6.53;;
71238;SDS011;61342;51.442;7.370;2023-04-28T05:33:44;12.07;;;8.30;;
71238;SDS011;61342;51.442;7.370;2023-04-28T05:34:44;11.13;;;7.57;;
71238;SDS011;61342;51.442;7.370;2023-04-28T05:35:45;10.87;;;7.03;;
71238;SDS011;61342;51.442;7.370;2023-04-28T05:36:45;13.20;;;6.77;;
71238;SDS011;61342;51.442;7.370;2023-04-28T05:37:46;8.17;;;6.60;;
71238;SDS011;61342;51.442;7.370;2023-04-28T05:38:46;8.73;;;7.10;;
71238;SDS011;61342;51.442;7.370;2023-04-28T05:39:46;9.07;;;6.53;;
71238;SDS011;61342;51.442;7.370;2023-04-28T05:40:47;11.27;;;7.00;;
71238;SDS011;61342;51.442;7.370;2023-04-28T05:41:47;10.07;;;6.87;;
71238;SDS011;61342;51.442;7.370;2023-04-28T05:42:48;9.40;;;7.40;;
71238;SDS011;61342;51.442;7.370;2023-04-28T05:43:48;9.20;;;7.47;;
71238;SDS011;61342;51.442;7.370;2023-04-28T05:44:50;11.53;;;7.57;;
71238;SDS011;61342;51.442;7.370;2023-04-28T05:45:50;13.13;;;7.50;;
71238;SDS011;61342;51.442;7.370;2023-04-28T05:46:51;9.60;;;7.07;;
71238;SDS011;61342;51.442;7.370;2023-04-28T05:47:51;11.60;;;7.17;;
71238;SDS011;61342;51.442;7.370;2023-04-28T05:48:51;10.67;;;7.10;;
71238;SDS011;61342;51.442;7.370;2023-04-28T05:49:52;8.07;;;6.83;;
71238;SDS011;61342;51.442;7.370;2023-04-28T05:50:52;10.70;;;7.73;;
71238;SDS011;61342;51.442;7.370;2023-04-28T05:51:52;8.63;;;7.37;;
71238;SDS011;61342;51.442;7.370;2023-04-28T05:52:53;13.90;;;7.80;;
71238;SDS011;61342;51.442;7.370;2023-04-28T05:53:53;11.30;;;6.97;;
71238;SDS011;61342;51.442;7.370;2023-04-28T05:54:53;10.57;;;7.80;;
71238;SDS011;61342;51.442;7.370;2023-04-28T05:55:54;11.17;;;7.87;;
71238;SDS011;61342;51.442;7.370;2023-04-28T05:56:54;12.53;;;7.27;;
71238;SDS011;61342;51.442;7.370;2023-04-28T05:57:55;10.13;;;7.80;;
71238;SDS011;61342;51.442;7.370;2023-04-28T05:58:55;9.87;;;7.67;;
71238;SDS011;61342;51.442;7.370;2023-04-28T05:59:57;9.13;;;7.43;;
71238;SDS011;61342;51.442;7.370;2023-04-28T06:00:57;11.03;;;7.60;;
71238;SDS011;61342;51.442;7.370;2023-04-28T06:01:58;12.77;;;7.53;;
71238;SDS011;61342;51.442;7.370;2023-04-28T06:02:59;8.83;;;7.33;;